sensor_id;sensor_type;location;lat;lon;timestamp;temperature;humidity
19007;DHT22;9636;47.382;8.480;2023-04-07T00:00:26;15.80;99.90
19007;DHT22;9636;47.382;8.480;2023-04-07T00:02:53;15.80;99.90
19007;DHT22;9636;47.382;8.480;2023-04-07T00:05:20;15.80;99.90
19007;DHT22;9636;47.382;8.480;2023-04-07T00:07:47;15.80;99.90
19007;DHT22;9636;47.382;8.480;2023-04-07T00:10:14;15.70;99.90
19007;DHT22;9636;47.382;8.480;2023-04-07T00:12:42;15.70;99.90
19007;DHT22;9636;47.382;8.480;2023-04-07T00:15:09;15.70;99.90
19007;DHT22;9636;47.382;8.480;2023-04-07T00:17:36;15.70;99.90
19007;DHT22;9636;47.382;8.480;2023-04-07T00:20:03;15.70;99.90
19007;DHT22;9636;47.382;8.480;2023-04-07T00:22:30;15.70;99.90
19007;DHT22;9636;47.382;8.480;2023-04-07T00:24:58;15.60;99.90
19007;DHT22;9636;47.382;8.480;2023-04-07T00:27:25;15.60;99.90
19007;DHT22;9636;47.382;8.480;2023-04-07T00:29:53;15.60;99.90
19007;DHT22;9636;47.382;8.480;2023-04-07T00:32:24;15.60;99.90
19007;DHT22;9636;47.382;8.480;2023-04-07T00:34:50;15.60;99.90
19007;DHT22;9636;47.382;8.480;2023-04-07T00:37:17;15.60;99.90
19007;DHT22;9636;47.382;8.480;2023-04-07T00:39:45;15.50;99.90
19007;DHT22;9636;47.382;8.480;2023-04-07T00:42:12;15.50;99.90
19007;DHT22;9636;47.382;8.480;2023-04-07T00:44:39;15.50;99.90
19007;DHT22;9636;47.382;8.480;2023-04-07T00:47:08;15.50;99.90
19007;DHT22;9636;47.382;8.480;2023-04-07T00:49:36;15.50;99.90
19007;DHT22;9636;47.382;8.480;2023-04-07T00:52:04;15.50;99.90
19007;DHT22;9636;47.382;8.480;2023-04-07T00:54:31;15.50;99.90
19007;DHT22;9636;47.382;8.480;2023-04-07T00:57:00;15.40;99.90
19007;DHT22;9636;47.382;8.480;2023-04-07T00:59:27;15.40;99.90
19007;DHT22;9636;47.382;8.480;2023-04-07T01:02:01;15.40;99.90
19007;DHT22;9636;47.382;8.480;2023-04-07T01:04:32;15.40;99.90
19007;DHT22;9636;47.382;8.480;2023-04-07T01:07:04;15.30;99.90
19007;DHT22;9636;47.382;8.480;2023-04-07T01:09:36;15.30;99.90
19007;DHT22;9636;47.382;8.480;2023-04-07T01:12:09;15.30;99.90
19007;DHT22;9636;47.382;8.480;2023-04-07T01:14:41;15.30;99.90
19007;DHT22;9636;47.382;8.480;2023-04-07T01:17:12;15.30;99.90
19007;DHT22;9636;47.382;8.480;2023-04-07T01:19:46;15.30;99.90
19007;DHT22;9636;47.382;8.480;2023-04-07T01:22:17;15.30;99.90
19007;DHT22;9636;47.382;8.480;2023-04-07T01:25:27;15.20;99.90
19007;DHT22;9636;47.382;8.480;2023-04-07T01:28:20;15.30;99.90
19007;DHT22;9636;47.382;8.480;2023-04-07T01:30:57;15.20;99.90
19007;DHT22;9636;47.382;8.480;2023-04-07T01:33:28;15.20;99.90
19007;DHT22;9636;47.382;8.480;2023-04-07T01:35:58;15.20;99.90
19007;DHT22;9636;47.382;8.480;2023-04-07T01:38:27;15.20;99.90
19007;DHT22;9636;47.382;8.480;2023-04-07T01:40:55;15.20;99.90
19007;DHT22;9636;47.382;8.480;2023-04-07T01:43:23;15.10;99.90
19007;DHT22;9636;47.382;8.480;2023-04-07T01:45:51;15.10;99.90
19007;DHT22;9636;47.382;8.480;2023-04-07T01:48:21;15.10;99.90
19007;DHT22;9636;47.382;8.480;2023-04-07T01:50:49;15.10;99.90
19007;DHT22;9636;47.382;8.480;2023-04-07T01:53:16;15.10;99.90
19007;DHT22;9636;47.382;8.480;2023-04-07T01:55:44;15.00;99.90
19007;DHT22;9636;47.382;8.480;2023-04-07T01:58:11;15.00;99.90
19007;DHT22;9636;47.382;8.480;2023-04-07T02:00:37;15.00;99.90
19007;DHT22;9636;47.382;8.480;2023-04-07T02:03:08;15.00;99.90
19007;DHT22;9636;47.382;8.480;2023-04-07T02:05:39;15.00;99.90
19007;DHT22;9636;47.382;8.480;2023-04-07T02:08:07;15.00;99.90
19007;DHT22;9636;47.382;8.480;2023-04-07T02:10:39;15.00;99.90
19007;DHT22;9636;47.382;8.480;2023-04-07T02:13:07;15.00;99.90
19007;DHT22;9636;47.382;8.480;2023-04-07T02:15:36;15.00;99.90
19007;DHT22;9636;47.382;8.480;2023-04-07T02:18:03;14.90;99.90
19007;DHT22;9636;47.382;8.480;2023-04-07T02:20:33;14.90;99.90
19007;DHT22;9636;47.382;8.480;2023-04-07T02:23:02;14.90;99.90
19007;DHT22;9636;47.382;8.480;2023-04-07T02:25:30;14.90;99.90
19007;DHT22;9636;47.382;8.480;2023-04-07T02:27:58;14.90;99.90
19007;DHT22;9636;47.382;8.480;2023-04-07T02:30:26;14.90;99.90
19007;DHT22;9636;47.382;8.480;2023-04-07T02:32:53;14.80;99.90
19007;DHT22;9636;47.382;8.480;2023-04-07T02:35:21;14.80;99.90
19007;DHT22;9636;47.382;8.480;2023-04-07T02:37:48;14.80;99.90
19007;DHT22;9636;47.382;8.480;2023-04-07T02:40:16;14.80;99.90
19007;DHT22;9636;47.382;8.480;2023-04-07T02:42:43;14.80;99.90
19007;DHT22;9636;47.382;8.480;2023-04-07T02:45:10;14.80;99.90
19007;DHT22;9636;47.382;8.480;2023-04-07T02:47:38;14.70;99.90
19007;DHT22;9636;47.382;8.480;2023-04-07T02:50:09;14.70;99.90
19007;DHT22;9636;47.382;8.480;2023-04-07T02:52:36;14.70;99.90
19007;DHT22;9636;47.382;8.480;2023-04-07T02:55:03;14.70;99.90
19007;DHT22;9636;47.382;8.480;2023-04-07T02:57:31;14.70;99.90
19007;DHT22;9636;47.382;8.480;2023-04-07T02:59:58;14.70;99.90
19007;DHT22;9636;47.382;8.480;2023-04-07T03:02:25;14.70;99.90
19007;DHT22;9636;47.382;8.480;2023-04-07T03:04:52;14.70;99.90
19007;DHT22;9636;47.382;8.480;2023-04-07T03:07:19;14.60;99.90
19007;DHT22;9636;47.382;8.480;2023-04-07T03:09:45;14.60;99.90
19007;DHT22;9636;47.382;8.480;2023-04-07T03:12:12;14.60;99.90
19007;DHT22;9636;47.382;8.480;2023-04-07T03:14:41;14.60;99.90
19007;DHT22;9636;47.382;8.480;2023-04-07T03:17:07;14.60;99.90
19007;DHT22;9636;47.382;8.480;2023-04-07T03:19:34;14.60;99.90
19007;DHT22;9636;47.382;8.480;2023-04-07T03:22:01;14.50;99.90
19007;DHT22;9636;47.382;8.480;2023-04-07T03:24:28;14.50;99.90
19007;DHT22;9636;47.382;8.480;2023-04-07T03:26:55;14.50;99.90
19007;DHT22;9636;47.382;8.480;2023-04-07T03:29:22;14.50;99.90
19007;DHT22;9636;47.382;8.480;2023-04-07T03:31:51;14.50;99.90
19007;DHT22;9636;47.382;8.480;2023-04-07T03:34:17;14.50;99.90
19007;DHT22;9636;47.382;8.480;2023-04-07T03:36:44;14.40;99.90
19007;DHT22;9636;47.382;8.480;2023-04-07T03:39:11;14.40;99.90
19007;DHT22;9636;47.382;8.480;2023-04-07T03:41:38;14.40;99.90
19007;DHT22;9636;47.382;8.480;2023-04-07T03:44:05;14.40;99.90
19007;DHT22;9636;47.382;8.480;2023-04-07T03:46:32;14.40;99.90
19007;DHT22;9636;47.382;8.480;2023-04-07T03:49:00;14.40;99.90
19007;DHT22;9636;47.382;8.480;2023-04-07T03:51:27;14.40;99.90
19007;DHT22;9636;47.382;8.480;2023-04-07T03:53:53;14.30;99.90
19007;DHT22;9636;47.382;8.480;2023-04-07T03:56:20;14.30;99.90
19007;DHT22;9636;47.382;8.480;2023-04-07T03:58:47;14.30;99.90
19007;DHT22;9636;47.382;8.480;2023-04-07T04:01:14;14.30;99.90
19007;DHT22;9636;47.382;8.480;2023-04-07T04:03:41;14.30;99.90
19007;DHT22;9636;47.382;8.480;2023-04-07T04:06:10;14.30;99.90
19007;DHT22;9636;47.382;8.480;2023-04-07T04:08:36;14.30;99.90
19007;DHT22;9636;47.382;8.480;2023-04-07T04:11:03;14.30;99.90
19007;DHT22;9636;47.382;8.480;2023-04-07T04:13:30;14.20;99.90
19007;DHT22;9636;47.382;8.480;2023-04-07T04:15:57;14.20;99.90
19007;DHT22;9636;47.382;8.480;2023-04-07T04:18:24;14.20;99.90
19007;DHT22;9636;47.382;8.480;2023-04-07T04:20:51;14.20;99.90
19007;DHT22;9636;47.382;8.480;2023-04-07T04:23:19;14.20;99.90
19007;DHT22;9636;47.382;8.480;2023-04-07T04:25:46;14.20;99.90
19007;DHT22;9636;47.382;8.480;2023-04-07T04:28:13;14.20;99.90
19007;DHT22;9636;47.382;8.480;2023-04-07T04:30:40;14.20;99.90
19007;DHT22;9636;47.382;8.480;2023-04-07T04:33:07;14.10;99.90
19007;DHT22;9636;47.382;8.480;2023-04-07T04:35:33;14.10;99.90
19007;DHT22;9636;47.382;8.480;2023-04-07T04:38:00;14.10;99.90
19007;DHT22;9636;47.382;8.480;2023-04-07T04:40:28;14.10;99.90
19007;DHT22;9636;47.382;8.480;2023-04-07T04:42:55;14.10;99.90
19007;DHT22;9636;47.382;8.480;2023-04-07T04:45:22;14.10;99.90
19007;DHT22;9636;47.382;8.480;2023-04-07T04:47:49;14.10;99.90
19007;DHT22;9636;47.382;8.480;2023-04-07T04:50:16;14.10;99.90
19007;DHT22;9636;47.382;8.480;2023-04-07T04:52:42;14.10;99.90
19007;DHT22;9636;47.382;8.480;2023-04-07T04:55:09;14.00;99.90
19007;DHT22;9636;47.382;8.480;2023-04-07T04:57:38;14.00;99.90
19007;DHT22;9636;47.382;8.480;2023-04-07T05:00:06;14.00;99.90
19007;DHT22;9636;47.382;8.480;2023-04-07T05:02:33;14.00;99.90
19007;DHT22;9636;47.382;8.480;2023-04-07T05:05:00;13.90;99.90
19007;DHT22;9636;47.382;8.480;2023-04-07T05:07:26;13.90;99.90
19007;DHT22;9636;47.382;8.480;2023-04-07T05:09:53;13.90;99.90
19007;DHT22;9636;47.382;8.480;2023-04-07T05:12:20;13.90;99.90
19007;DHT22;9636;47.382;8.480;2023-04-07T05:14:48;13.90;99.90
19007;DHT22;9636;47.382;8.480;2023-04-07T05:17:15;13.90;99.90
19007;DHT22;9636;47.382;8.480;2023-04-07T05:19:42;13.90;99.90
19007;DHT22;9636;47.382;8.480;2023-04-07T05:22:09;13.90;99.90
19007;DHT22;9636;47.382;8.480;2023-04-07T05:24:36;13.90;99.90
19007;DHT22;9636;47.382;8.480;2023-04-07T05:27:03;13.80;99.90
19007;DHT22;9636;47.382;8.480;2023-04-07T05:29:30;13.90;99.90
19007;DHT22;9636;47.382;8.480;2023-04-07T05:31:58;13.80;99.90
19007;DHT22;9636;47.382;8.480;2023-04-07T05:34:26;13.90;99.90
19007;DHT22;9636;47.382;8.480;2023-04-07T05:36:52;13.80;99.90
19007;DHT22;9636;47.382;8.480;2023-04-07T05:39:19;13.80;99.90
19007;DHT22;9636;47.382;8.480;2023-04-07T05:41:46;13.80;99.90
19007;DHT22;9636;47.382;8.480;2023-04-07T05:44:13;13.80;99.90
19007;DHT22;9636;47.382;8.480;2023-04-07T05:46:40;13.90;99.90
19007;DHT22;9636;47.382;8.480;2023-04-07T05:49:08;13.80;99.90
19007;DHT22;9636;47.382;8.480;2023-04-07T05:51:35;13.80;99.90
19007;DHT22;9636;47.382;8.480;2023-04-07T05:54:02;13.80;99.90
19007;DHT22;9636;47.382;8.480;2023-04-07T05:56:29;13.80;99.90
19007;DHT22;9636;47.382;8.480;2023-04-07T05:58:55;13.80;99.90
19007;DHT22;9636;47.382;8.480;2023-04-07T06:01:23;13.80;99.90
19007;DHT22;9636;47.382;8.480;2023-04-07T06:03:50;13.80;99.90
19007;DHT22;9636;47.382;8.480;2023-04-07T06:06:18;13.80;99.90
19007;DHT22;9636;47.382;8.480;2023-04-07T06:08:45;13.80;99.90
19007;DHT22;9636;47.382;8.480;2023-04-07T06:11:12;13.80;99.90
19007;DHT22;9636;47.382;8.480;2023-04-07T06:13:38;13.80;99.90
19007;DHT22;9636;47.382;8.480;2023-04-07T06:16:06;13.90;99.90
19007;DHT22;9636;47.382;8.480;2023-04-07T06:18:32;13.90;99.90
19007;DHT22;9636;47.382;8.480;2023-04-07T06:21:00;13.90;99.90
19007;DHT22;9636;47.382;8.480;2023-04-07T06:23:28;13.90;99.90
19007;DHT22;9636;47.382;8.480;2023-04-07T06:25:54;13.90;99.90
19007;DHT22;9636;47.382;8.480;2023-04-07T06:28:21;14.00;99.90
19007;DHT22;9636;47.382;8.480;2023-04-07T06:30:48;14.00;99.90
19007;DHT22;9636;47.382;8.480;2023-04-07T06:33:15;14.00;99.90
19007;DHT22;9636;47.382;8.480;2023-04-07T06:35:42;14.00;99.90
19007;DHT22;9636;47.382;8.480;2023-04-07T06:38:09;14.00;99.90
19007;DHT22;9636;47.382;8.480;2023-04-07T06:40:38;14.10;99.90
19007;DHT22;9636;47.382;8.480;2023-04-07T06:43:04;14.10;99.90
19007;DHT22;9636;47.382;8.480;2023-04-07T06:45:31;14.10;99.90
19007;DHT22;9636;47.382;8.480;2023-04-07T06:47:58;14.20;99.90
19007;DHT22;9636;47.382;8.480;2023-04-07T06:50:25;14.20;99.90
19007;DHT22;9636;47.382;8.480;2023-04-07T06:52:52;14.30;99.90
19007;DHT22;9636;47.382;8.480;2023-04-07T06:55:18;14.30;99.90
19007;DHT22;9636;47.382;8.480;2023-04-07T06:57:47;14.40;99.90
19007;DHT22;9636;47.382;8.480;2023-04-07T07:00:15;14.40;99.90
19007;DHT22;9636;47.382;8.480;2023-04-07T07:02:42;14.50;99.90
19007;DHT22;9636;47.382;8.480;2023-04-07T07:05:09;14.50;99.90
19007;DHT22;9636;47.382;8.480;2023-04-07T07:07:36;14.60;99.90
19007;DHT22;9636;47.382;8.480;2023-04-07T07:10:03;14.60;99.90
19007;DHT22;9636;47.382;8.480;2023-04-07T07:12:30;14.70;99.90
19007;DHT22;9636;47.382;8.480;2023-04-07T07:14:59;14.70;99.90
19007;DHT22;9636;47.382;8.480;2023-04-07T07:17:25;14.80;99.90
19007;DHT22;9636;47.382;8.480;2023-04-07T07:19:52;14.80;99.90
19007;DHT22;9636;47.382;8.480;2023-04-07T07:22:19;14.90;99.90
19007;DHT22;9636;47.382;8.480;2023-04-07T07:24:46;14.90;99.90
19007;DHT22;9636;47.382;8.480;2023-04-07T07:27:13;14.90;99.90
19007;DHT22;9636;47.382;8.480;2023-04-07T07:29:40;15.00;99.90
19007;DHT22;9636;47.382;8.480;2023-04-07T07:32:08;15.00;99.90
19007;DHT22;9636;47.382;8.480;2023-04-07T07:34:35;15.00;99.90
19007;DHT22;9636;47.382;8.480;2023-04-07T07:37:02;15.10;99.90
19007;DHT22;9636;47.382;8.480;2023-04-07T07:39:28;15.10;99.90
19007;DHT22;9636;47.382;8.480;2023-04-07T07:41:55;15.10;99.90
19007;DHT22;9636;47.382;8.480;2023-04-07T07:44:22;15.10;99.90
19007;DHT22;9636;47.382;8.480;2023-04-07T07:46:49;15.10;99.90
19007;DHT22;9636;47.382;8.480;2023-04-07T07:49:17;15.20;99.90
19007;DHT22;9636;47.382;8.480;2023-04-07T07:51:44;15.20;99.90
19007;DHT22;9636;47.382;8.480;2023-04-07T07:54:11;15.20;99.90
19007;DHT22;9636;47.382;8.480;2023-04-07T07:56:38;15.20;99.90
19007;DHT22;9636;47.382;8.480;2023-04-07T07:59:05;15.20;99.90
19007;DHT22;9636;47.382;8.480;2023-04-07T08:01:32;15.30;99.90
19007;DHT22;9636;47.382;8.480;2023-04-07T08:03:59;15.30;99.90
19007;DHT22;9636;47.382;8.480;2023-04-07T08:06:27;15.30;99.90
19007;DHT22;9636;47.382;8.480;2023-04-07T08:08:55;15.30;99.90
19007;DHT22;9636;47.382;8.480;2023-04-07T08:11:23;15.40;99.90
19007;DHT22;9636;47.382;8.480;2023-04-07T08:13:49;15.40;99.90
19007;DHT22;9636;47.382;8.480;2023-04-07T08:16:18;15.40;99.90
19007;DHT22;9636;47.382;8.480;2023-04-07T08:18:45;15.50;99.90
19007;DHT22;9636;47.382;8.480;2023-04-07T08:21:12;15.50;99.90
19007;DHT22;9636;47.382;8.480;2023-04-07T08:23:40;15.60;99.90
19007;DHT22;9636;47.382;8.480;2023-04-07T08:26:07;15.60;99.90
19007;DHT22;9636;47.382;8.480;2023-04-07T08:28:33;15.70;99.90
19007;DHT22;9636;47.382;8.480;2023-04-07T08:31:00;15.70;99.90
19007;DHT22;9636;47.382;8.480;2023-04-07T08:33:27;15.70;99.90
19007;DHT22;9636;47.382;8.480;2023-04-07T08:35:54;15.80;99.90
19007;DHT22;9636;47.382;8.480;2023-04-07T08:38:21;15.80;99.90
19007;DHT22;9636;47.382;8.480;2023-04-07T08:40:53;15.90;99.90
19007;DHT22;9636;47.382;8.480;2023-04-07T08:43:25;15.90;99.90
19007;DHT22;9636;47.382;8.480;2023-04-07T08:45:54;16.00;99.90
19007;DHT22;9636;47.382;8.480;2023-04-07T08:48:23;16.10;99.90
19007;DHT22;9636;47.382;8.480;2023-04-07T08:50:51;16.20;99.90
19007;DHT22;9636;47.382;8.480;2023-04-07T08:53:34;16.20;99.90
19007;DHT22;9636;47.382;8.480;2023-04-07T08:56:03;16.30;99.90
19007;DHT22;9636;47.382;8.480;2023-04-07T08:58:31;16.40;99.90
19007;DHT22;9636;47.382;8.480;2023-04-07T09:00:58;16.50;99.90
19007;DHT22;9636;47.382;8.480;2023-04-07T09:03:25;16.60;99.90
19007;DHT22;9636;47.382;8.480;2023-04-07T09:05:52;16.70;99.90
19007;DHT22;9636;47.382;8.480;2023-04-07T09:08:20;16.80;99.90
19007;DHT22;9636;47.382;8.480;2023-04-07T09:10:47;17.00;99.90
19007;DHT22;9636;47.382;8.480;2023-04-07T09:13:15;17.20;99.90
19007;DHT22;9636;47.382;8.480;2023-04-07T09:15:42;17.30;99.90
19007;DHT22;9636;47.382;8.480;2023-04-07T09:18:09;17.40;99.90
19007;DHT22;9636;47.382;8.480;2023-04-07T09:20:59;17.50;99.90
19007;DHT22;9636;47.382;8.480;2023-04-07T09:23:28;17.60;99.90
19007;DHT22;9636;47.382;8.480;2023-04-07T09:25:55;17.60;99.90
19007;DHT22;9636;47.382;8.480;2023-04-07T09:28:37;17.50;99.90
19007;DHT22;9636;47.382;8.480;2023-04-07T09:31:06;17.50;99.90
19007;DHT22;9636;47.382;8.480;2023-04-07T09:33:33;17.60;99.90
19007;DHT22;9636;47.382;8.480;2023-04-07T09:36:00;17.60;99.90
19007;DHT22;9636;47.382;8.480;2023-04-07T09:38:32;17.60;99.90
19007;DHT22;9636;47.382;8.480;2023-04-07T09:41:05;17.60;99.90
19007;DHT22;9636;47.382;8.480;2023-04-07T09:43:35;17.70;99.90
19007;DHT22;9636;47.382;8.480;2023-04-07T09:46:07;17.70;99.90
19007;DHT22;9636;47.382;8.480;2023-04-07T09:48:34;17.80;99.90
19007;DHT22;9636;47.382;8.480;2023-04-07T09:51:05;17.80;99.90
19007;DHT22;9636;47.382;8.480;2023-04-07T09:53:41;17.90;99.90
19007;DHT22;9636;47.382;8.480;2023-04-07T09:56:08;18.00;99.90
19007;DHT22;9636;47.382;8.480;2023-04-07T09:58:38;18.10;99.90
19007;DHT22;9636;47.382;8.480;2023-04-07T10:01:07;18.20;99.90
19007;DHT22;9636;47.382;8.480;2023-04-07T10:03:34;18.30;99.90
19007;DHT22;9636;47.382;8.480;2023-04-07T10:06:01;18.30;99.90
19007;DHT22;9636;47.382;8.480;2023-04-07T10:08:30;18.40;99.90
19007;DHT22;9636;47.382;8.480;2023-04-07T10:10:58;18.40;99.90
19007;DHT22;9636;47.382;8.480;2023-04-07T10:13:25;18.50;99.90
19007;DHT22;9636;47.382;8.480;2023-04-07T10:15:54;18.60;99.90
19007;DHT22;9636;47.382;8.480;2023-04-07T10:18:22;18.60;99.90
19007;DHT22;9636;47.382;8.480;2023-04-07T10:20:51;18.60;99.90
19007;DHT22;9636;47.382;8.480;2023-04-07T10:23:24;18.60;99.90
19007;DHT22;9636;47.382;8.480;2023-04-07T10:25:53;18.60;99.90
19007;DHT22;9636;47.382;8.480;2023-04-07T10:28:24;18.60;99.90
19007;DHT22;9636;47.382;8.480;2023-04-07T10:30:53;18.70;99.90
19007;DHT22;9636;47.382;8.480;2023-04-07T10:33:45;18.70;99.90
19007;DHT22;9636;47.382;8.480;2023-04-07T10:36:12;18.70;99.90
19007;DHT22;9636;47.382;8.480;2023-04-07T10:38:39;18.80;99.90
19007;DHT22;9636;47.382;8.480;2023-04-07T10:41:32;18.80;99.90
19007;DHT22;9636;47.382;8.480;2023-04-07T10:44:00;18.80;99.90
19007;DHT22;9636;47.382;8.480;2023-04-07T10:47:01;18.80;99.90
19007;DHT22;9636;47.382;8.480;2023-04-07T10:49:29;18.90;99.90
19007;DHT22;9636;47.382;8.480;2023-04-07T10:52:21;18.90;99.90
19007;DHT22;9636;47.382;8.480;2023-04-07T10:55:27;18.90;99.90
19007;DHT22;9636;47.382;8.480;2023-04-07T10:58:17;19.00;99.90
19007;DHT22;9636;47.382;8.480;2023-04-07T11:01:17;19.00;99.90
19007;DHT22;9636;47.382;8.480;2023-04-07T11:04:01;19.10;99.90
19007;DHT22;9636;47.382;8.480;2023-04-07T11:06:29;19.20;99.90
19007;DHT22;9636;47.382;8.480;2023-04-07T11:08:56;19.20;99.90
19007;DHT22;9636;47.382;8.480;2023-04-07T11:11:36;19.20;99.90
19007;DHT22;9636;47.382;8.480;2023-04-07T11:14:04;19.20;99.90
19007;DHT22;9636;47.382;8.480;2023-04-07T11:16:39;19.20;99.90
19007;DHT22;9636;47.382;8.480;2023-04-07T11:19:08;19.20;99.90
19007;DHT22;9636;47.382;8.480;2023-04-07T11:21:35;19.20;99.90
19007;DHT22;9636;47.382;8.480;2023-04-07T11:24:02;19.20;99.90
19007;DHT22;9636;47.382;8.480;2023-04-07T11:26:36;19.20;99.90
19007;DHT22;9636;47.382;8.480;2023-04-07T11:29:03;19.20;99.90
19007;DHT22;9636;47.382;8.480;2023-04-07T11:31:31;19.20;99.90
19007;DHT22;9636;47.382;8.480;2023-04-07T11:33:59;19.10;99.90
19007;DHT22;9636;47.382;8.480;2023-04-07T11:36:28;19.10;99.90
19007;DHT22;9636;47.382;8.480;2023-04-07T11:38:57;19.10;99.90
19007;DHT22;9636;47.382;8.480;2023-04-07T11:41:26;19.10;99.90
19007;DHT22;9636;47.382;8.480;2023-04-07T11:44:07;19.00;99.90
19007;DHT22;9636;47.382;8.480;2023-04-07T11:46:35;19.00;99.90
19007;DHT22;9636;47.382;8.480;2023-04-07T11:49:09;19.00;99.90
19007;DHT22;9636;47.382;8.480;2023-04-07T11:51:38;18.90;99.90
19007;DHT22;9636;47.382;8.480;2023-04-07T11:54:05;18.90;99.90
19007;DHT22;9636;47.382;8.480;2023-04-07T11:56:41;18.80;99.90
19007;DHT22;9636;47.382;8.480;2023-04-07T11:59:18;18.80;99.90
19007;DHT22;9636;47.382;8.480;2023-04-07T12:01:48;18.80;99.90
19007;DHT22;9636;47.382;8.480;2023-04-07T12:04:15;18.70;99.90
19007;DHT22;9636;47.382;8.480;2023-04-07T12:06:45;18.70;99.90
19007;DHT22;9636;47.382;8.480;2023-04-07T12:09:26;18.70;99.90
19007;DHT22;9636;47.382;8.480;2023-04-07T12:11:54;18.60;99.90
19007;DHT22;9636;47.382;8.480;2023-04-07T12:14:21;18.60;99.90
19007;DHT22;9636;47.382;8.480;2023-04-07T12:16:48;18.60;99.90
19007;DHT22;9636;47.382;8.480;2023-04-07T12:19:15;18.60;99.90
19007;DHT22;9636;47.382;8.480;2023-04-07T12:21:44;18.50;99.90
19007;DHT22;9636;47.382;8.480;2023-04-07T12:24:11;18.50;99.90
19007;DHT22;9636;47.382;8.480;2023-04-07T12:26:37;18.50;99.90
19007;DHT22;9636;47.382;8.480;2023-04-07T12:29:04;18.50;99.90
19007;DHT22;9636;47.382;8.480;2023-04-07T12:31:31;18.40;99.90
19007;DHT22;9636;47.382;8.480;2023-04-07T12:33:59;18.40;99.90
19007;DHT22;9636;47.382;8.480;2023-04-07T12:36:26;18.40;99.90
19007;DHT22;9636;47.382;8.480;2023-04-07T12:38:56;18.40;99.90
19007;DHT22;9636;47.382;8.480;2023-04-07T12:41:23;18.30;99.90
19007;DHT22;9636;47.382;8.480;2023-04-07T12:43:51;18.40;99.90
19007;DHT22;9636;47.382;8.480;2023-04-07T12:46:18;18.30;99.90
19007;DHT22;9636;47.382;8.480;2023-04-07T12:48:45;18.30;99.90
19007;DHT22;9636;47.382;8.480;2023-04-07T12:51:12;18.40;99.90
19007;DHT22;9636;47.382;8.480;2023-04-07T12:53:39;18.40;99.90
19007;DHT22;9636;47.382;8.480;2023-04-07T12:56:09;18.40;99.90
19007;DHT22;9636;47.382;8.480;2023-04-07T12:58:37;18.40;99.90
19007;DHT22;9636;47.382;8.480;2023-04-07T13:01:04;18.40;99.90
19007;DHT22;9636;47.382;8.480;2023-04-07T13:03:31;18.40;99.90
19007;DHT22;9636;47.382;8.480;2023-04-07T13:05:58;18.40;99.90
19007;DHT22;9636;47.382;8.480;2023-04-07T13:08:26;18.40;99.90
19007;DHT22;9636;47.382;8.480;2023-04-07T13:10:53;18.40;99.90
19007;DHT22;9636;47.382;8.480;2023-04-07T13:13:22;18.40;99.90
19007;DHT22;9636;47.382;8.480;2023-04-07T13:15:48;18.50;99.90
19007;DHT22;9636;47.382;8.480;2023-04-07T13:18:16;18.60;99.90
19007;DHT22;9636;47.382;8.480;2023-04-07T13:20:43;18.60;99.90
19007;DHT22;9636;47.382;8.480;2023-04-07T13:23:10;18.70;99.90
19007;DHT22;9636;47.382;8.480;2023-04-07T13:25:36;18.70;99.90
19007;DHT22;9636;47.382;8.480;2023-04-07T13:28:04;18.70;99.90
19007;DHT22;9636;47.382;8.480;2023-04-07T13:30:32;18.70;99.90
19007;DHT22;9636;47.382;8.480;2023-04-07T13:32:59;18.70;99.90
19007;DHT22;9636;47.382;8.480;2023-04-07T13:35:26;18.80;99.90
19007;DHT22;9636;47.382;8.480;2023-04-07T13:37:54;18.80;99.90
19007;DHT22;9636;47.382;8.480;2023-04-07T13:40:21;18.80;99.90
19007;DHT22;9636;47.382;8.480;2023-04-07T13:42:48;18.80;99.90
19007;DHT22;9636;47.382;8.480;2023-04-07T13:45:15;18.90;99.90
19007;DHT22;9636;47.382;8.480;2023-04-07T13:47:43;18.90;99.90
19007;DHT22;9636;47.382;8.480;2023-04-07T13:50:10;19.00;99.90
19007;DHT22;9636;47.382;8.480;2023-04-07T13:52:37;19.10;99.90
19007;DHT22;9636;47.382;8.480;2023-04-07T13:55:05;19.10;99.90
19007;DHT22;9636;47.382;8.480;2023-04-07T13:57:32;19.20;99.90
19007;DHT22;9636;47.382;8.480;2023-04-07T13:59:58;19.20;99.90
19007;DHT22;9636;47.382;8.480;2023-04-07T14:02:25;19.30;99.90
19007;DHT22;9636;47.382;8.480;2023-04-07T14:04:55;19.30;99.90
19007;DHT22;9636;47.382;8.480;2023-04-07T14:07:22;19.40;99.90
19007;DHT22;9636;47.382;8.480;2023-04-07T14:09:49;19.60;99.90
19007;DHT22;9636;47.382;8.480;2023-04-07T14:12:16;19.90;99.90
19007;DHT22;9636;47.382;8.480;2023-04-07T14:14:45;20.20;99.90
19007;DHT22;9636;47.382;8.480;2023-04-07T14:17:14;20.40;99.90
19007;DHT22;9636;47.382;8.480;2023-04-07T14:19:42;20.30;99.90
19007;DHT22;9636;47.382;8.480;2023-04-07T14:22:12;20.40;99.90
19007;DHT22;9636;47.382;8.480;2023-04-07T14:24:39;20.60;99.90
19007;DHT22;9636;47.382;8.480;2023-04-07T14:27:06;20.50;99.90
19007;DHT22;9636;47.382;8.480;2023-04-07T14:29:33;21.00;99.90
19007;DHT22;9636;47.382;8.480;2023-04-07T14:32:00;21.30;99.90
19007;DHT22;9636;47.382;8.480;2023-04-07T14:34:26;21.20;99.90
19007;DHT22;9636;47.382;8.480;2023-04-07T14:36:53;21.10;99.90
19007;DHT22;9636;47.382;8.480;2023-04-07T14:39:22;21.00;99.90
19007;DHT22;9636;47.382;8.480;2023-04-07T14:41:49;20.90;99.90
19007;DHT22;9636;47.382;8.480;2023-04-07T14:44:16;20.80;99.90
19007;DHT22;9636;47.382;8.480;2023-04-07T14:46:43;20.70;99.90
19007;DHT22;9636;47.382;8.480;2023-04-07T14:49:10;20.80;99.90
19007;DHT22;9636;47.382;8.480;2023-04-07T14:51:38;20.70;99.90
19007;DHT22;9636;47.382;8.480;2023-04-07T14:54:05;20.70;99.90
19007;DHT22;9636;47.382;8.480;2023-04-07T14:56:33;20.70;99.90
19007;DHT22;9636;47.382;8.480;2023-04-07T14:59:00;20.60;99.90
19007;DHT22;9636;47.382;8.480;2023-04-07T15:01:27;20.60;99.90
19007;DHT22;9636;47.382;8.480;2023-04-07T15:03:54;20.50;99.90
19007;DHT22;9636;47.382;8.480;2023-04-07T15:06:22;20.40;99.90
19007;DHT22;9636;47.382;8.480;2023-04-07T15:08:50;20.30;99.90
19007;DHT22;9636;47.382;8.480;2023-04-07T15:11:17;20.30;99.90
19007;DHT22;9636;47.382;8.480;2023-04-07T15:13:45;20.30;99.90
19007;DHT22;9636;47.382;8.480;2023-04-07T15:16:13;20.20;99.90
19007;DHT22;9636;47.382;8.480;2023-04-07T15:18:41;20.30;99.90
19007;DHT22;9636;47.382;8.480;2023-04-07T15:21:09;20.20;99.90
19007;DHT22;9636;47.382;8.480;2023-04-07T15:23:37;20.20;99.90
19007;DHT22;9636;47.382;8.480;2023-04-07T15:26:05;20.20;99.90
19007;DHT22;9636;47.382;8.480;2023-04-07T15:28:32;20.10;99.90
19007;DHT22;9636;47.382;8.480;2023-04-07T15:31:00;20.20;99.90
19007;DHT22;9636;47.382;8.480;2023-04-07T15:33:27;20.20;99.90
19007;DHT22;9636;47.382;8.480;2023-04-07T15:35:54;20.20;99.90
19007;DHT22;9636;47.382;8.480;2023-04-07T15:38:21;20.20;99.90
19007;DHT22;9636;47.382;8.480;2023-04-07T15:40:48;20.20;99.90
19007;DHT22;9636;47.382;8.480;2023-04-07T15:43:15;20.20;99.90
19007;DHT22;9636;47.382;8.480;2023-04-07T15:45:43;20.20;99.90
19007;DHT22;9636;47.382;8.480;2023-04-07T15:48:11;20.20;99.90
19007;DHT22;9636;47.382;8.480;2023-04-07T15:50:39;20.10;99.90
19007;DHT22;9636;47.382;8.480;2023-04-07T15:53:06;20.10;99.90